Private Wetterstation Nrnberg - Katzwang
Wetterdaten: August 2016
Datum Temp. A. Feuchte A. Luftdruck Regen Wind Richtung Taupunkt Windchill Windben
01.08.2016 17,3 C 67 % 1018 hPa 0,0 l/m 7,6 km/h N-NW 10,7 C 16,3 C 6,3 km/h
02.08.2016 16,0 C 78 % 1016 hPa 6,7 l/m 2,2 km/h S 12,0 C 15,7 C 1,8 km/h
03.08.2016 20,7 C 73 % 1013 hPa 0,0 l/m 8,5 km/h W-SW 15,6 C 19,5 C 7,0 km/h
04.08.2016 21,6 C 67 % 1011 hPa 3,1 l/m 11,6 km/h S-SO 14,7 C 19,8 C 9,7 km/h
05.08.2016 16,9 C 76 % 1017 hPa 12,4 l/m 0,9 km/h N-NW 12,6 C 16,9 C 0,8 km/h
06.08.2016 17,0 C 74 % 1024 hPa 0,0 l/m 2,8 km/h N-NW 12,1 C 16,6 C 2,3 km/h
07.08.2016 18,7 C 67 % 1024 hPa 0,0 l/m 3,5 km/h SW 12,1 C 17,6 C 2,9 km/h
08.08.2016 20,8 C 65 % 1018 hPa 0,0 l/m 2,5 km/h W-NW 13,6 C 20,6 C 2,1 km/h
09.08.2016 16,0 C 75 % 1018 hPa 2,1 l/m 6,9 km/h NW 11,5 C 14,9 C 5,8 km/h
10.08.2016 14,7 C 64 % 1018 hPa 0,5 l/m 4,1 km/h N-NW 7,6 C 14,0 C 3,4 km/h
11.08.2016 14,3 C 62 % 1021 hPa 0,0 l/m 2,5 km/h N-NW 6,7 C 14,0 C 2,1 km/h
12.08.2016 14,9 C 81 % 1023 hPa 3,1 l/m 5,4 km/h W-NW 11,5 C 13,9 C 4,4 km/h
13.08.2016 20,3 C 69 % 1021 hPa 0,0 l/m 6,9 km/h W-NW 14,1 C 19,9 C 5,8 km/h
14.08.2016 20,2 C 67 % 1020 hPa 0,0 l/m 5,1 km/h N-NW 13,4 C 19,9 C 4,2 km/h
15.08.2016 19,7 C 66 % 1018 hPa 0,0 l/m 0,9 km/h O-NO 12,7 C 19,7 C 0,8 km/h
16.08.2016 19,8 C 62 % 1013 hPa 0,0 l/m 5,4 km/h O-NO 11,8 C 19,4 C 4,4 km/h
17.08.2016 17,8 C 59 % 1011 hPa 0,0 l/m 8,8 km/h O-NO 9,1 C 17,0 C 8,6 km/h
18.08.2016 18,5 C 57 % 1008 hPa 0,0 l/m 2,2 km/h N-NW 9,1 C 18,4 C 1,8 km/h
19.08.2016 19,8 C 69 % 1010 hPa 0,0 l/m 6,9 km/h S-SO 13,8 C 19,2 C 5,8 km/h
20.08.2016 20,3 C 70 % 1013 hPa 8,3 l/m 5,7 km/h SW 14,1 C 20,0 C 4,7 km/h
21.08.2016 16,5 C 69 % 1019 hPa 2,1 l/m 6,0 km/h W-NW 10,6 C 15,7 C 4,9 km/h
22.08.2016 17,9 C 67 % 1026 hPa 0,0 l/m 2,8 km/h N-NW 11,5 C 17,6 C 2,3 km/h
23.08.2016 20,2 C 67 % 1025 hPa 0,0 l/m 0,0 km/h NO 13,6 C 20,2 C 0,0 km/h
24.08.2016 21,9 C 62 % 1022 hPa 0,0 l/m 5,3 km/h S-SO 13,8 C 21,7 C 4,4 km/h
25.08.2016 21,6 C 57 % 1018 hPa 0,0 l/m 3,2 km/h S-SO 11,6 C 21,6 C 2,6 km/h
26.08.2016 23,0 C 63 % 1017 hPa 0,0 l/m 2,8 km/h S-SO 14,9 C 23,0 C 2,3 km/h
27.08.2016 23,3 C 60 % 1016 hPa 0,0 l/m 1,9 km/h O 14,2 C 23,3 C 1,6 km/h
28.08.2016 24,7 C 58 % 1013 hPa 0,0 l/m 6,0 km/h SW 15,0 C 24,7 C 8,6 km/h
29.08.2016 22,7 C 58 % 1017 hPa 0,0 l/m 5,1 km/h N-NW 13,5 C 22,4 C 4,2 km/h
30.08.2016 18,9 C 64 % 1021 hPa 0,0 l/m 2,8 km/h O-NO 11,6 C 18,7 C 2,3 km/h
31.08.2016 19,3 C 63 % 1019 hPa 0,0 l/m 1,3 km/h O 11,4 C 19,3 C 1,0 km/h
Min-Datum 01.08.16 01.08.16 18.08.16 8 Tage 01.08.16 - 01.08.16 01.08.16 01.08.16
Min-Zeit 00:00 00:00 15:20 - 00:00 - 00:00 00:00 00:00
Minimum 0,0 C 0 % 1007 hPa - 0,0 km/h - -60,0 C 0,0 C 0,0 km/h
Max-Datum 28.08.16 13.08.16 07.08.16 05.08.16 22.08.16 - 27.08.16 28.08.16 21.08.16
Max-Zeit 14:20 08:20 00:50 00:30 14:00 - 10:50 14:20 18:00
Maximum 35,5 C 84 % 1027 hPa 12,4 l/m 55,4 km/h
N-NW
- 20,4 C 35,5 C 69,9 km/h
W-NW
Durchschnitt 19,2 C 66 % 1018 hPa #38,3 l/m 4,4 km/h N-NW 12,3 C 18,8 C 3,8 km/h

Durchschnitt Minimum Temp.11,9 C
Durchschnitt Maximum Temp.27,4 C